^^
Station Historical Data
Daily Summary for January 18, 2017 Units:  English    Metric   Both
« Previous Day
Next Day »
Daily Weekly Monthly Yearly Custom
  High: Low: Average:
Temperature: 38.1 °F 35.2 °F 36.8 °F
Dew Point: 37.2 °F 34.2 °F 35.8 °F
Humidity: 97% 95% 96%
Wind Speed: 2.0mph 0.0mph 0.2mph
Wind Gust: 5.0mph - -
Wind- - WNW
Pressure: 30.07 in 29.90 in -
Precipitation: 0.10 in    
Historical Graphs
 
 
Tabular Data for January 18, 2017
Time Temperature Dew Point Pressure Wind Wind Speed Wind Gust Humidity Rainfall Rate (Hourly) Conditions
00:00 35.7 °F 34.7 °F 29.98 in Calm   1.0 mph 96% 0.02 in -RA
00:10 35.7 °F 34.7 °F 29.96 in Calm   4.0 mph 96% 0.02 in -RA
00:20 35.7 °F 34.7 °F 29.98 in Calm   3.0 mph 96% 0.00 in -RA
00:30 35.7 °F 34.7 °F 29.97 in Calm   1.0 mph 96% 0.00 in -RA
00:40 35.7 °F 34.7 °F 29.96 in Calm   2.0 mph 96% 0.00 in -RA
00:50 35.8 °F 34.8 °F 29.93 in Calm   2.0 mph 96% 0.00 in -RA
01:00 36.0 °F 35.0 °F 29.94 in Calm   3.0 mph 96% 0.00 in -RA
01:10 36.2 °F 35.2 °F 29.95 in Calm   5.0 mph 96% 0.01 in RA
01:20 36.3 °F 35.3 °F 29.95 in Calm     96% 0.00 in BKN
01:30 36.3 °F 35.3 °F 29.95 in Calm   1.0 mph 96% 0.00 in BKN
01:40 36.3 °F 35.3 °F 29.94 in Calm   1.0 mph 96% 0.00 in BKN
01:50 36.4 °F 35.4 °F 29.93 in Calm   1.0 mph 96% 0.00 in BKN
02:00 36.6 °F 35.6 °F 29.94 in Calm   1.0 mph 96% 0.00 in BKN
02:10 36.7 °F 35.7 °F 29.93 in Calm   1.0 mph 96% 0.00 in OVC
02:20 36.6 °F 35.6 °F 29.94 in Calm   1.0 mph 96% 0.00 in OVC
02:30 36.3 °F 35.3 °F 29.93 in Calm   1.0 mph 96% 0.00 in OVC
02:40 36.4 °F 35.3 °F 29.93 in Calm     96% 0.00 in OVC
02:50 36.3 °F 35.3 °F 29.93 in Calm   1.0 mph 96% 0.00 in OVC
03:00 36.1 °F 35.0 °F 29.93 in WNW 1.0 mph 2.0 mph 96% 0.00 in OVC
03:10 35.5 °F 34.5 °F 29.93 in NNW 1.0 mph 4.0 mph 96% 0.00 in OVC
03:20 35.3 °F 34.3 °F 29.92 in Calm   4.0 mph 96% 0.01 in RA
03:30 35.6 °F 34.6 °F 29.92 in Calm   1.0 mph 96% 0.00 in OVC
03:40 35.6 °F 34.6 °F 29.93 in Calm   3.0 mph 96% 0.01 in RA
03:50 35.3 °F 34.3 °F 29.93 in Calm   2.0 mph 96% 0.02 in RA
04:00 35.3 °F 34.3 °F 29.93 in Calm   1.0 mph 96% 0.01 in RA
04:10 35.2 °F 34.2 °F 29.93 in Calm   1.0 mph 96% 0.00 in -RA
04:20 35.3 °F 34.3 °F 29.92 in Calm     96% 0.01 in -RA
04:30 35.5 °F 34.5 °F 29.90 in Calm   1.0 mph 96% 0.00 in -RA
04:40 35.8 °F 35.0 °F 29.90 in Calm   1.0 mph 97% 0.00 in -RA
04:50 35.8 °F 35.0 °F 29.90 in Calm   2.0 mph 97% 0.00 in -RA
05:00 35.7 °F 34.9 °F 29.91 in Calm   1.0 mph 97% 0.00 in -RA
05:10 35.5 °F 34.5 °F 29.92 in NNW 1.0 mph 4.0 mph 96% 0.00 in OVC
05:20 35.5 °F 34.5 °F 29.93 in Calm   3.0 mph 96% 0.00 in OVC
05:30 35.6 °F 34.8 °F 29.92 in Calm   1.0 mph 97% 0.00 in OVC
05:40 35.5 °F 34.8 °F 29.93 in Calm   2.0 mph 97% 0.00 in OVC
05:50 35.5 °F 34.8 °F 29.93 in Calm   1.0 mph 97% 0.00 in OVC
06:00 35.6 °F 34.8 °F 29.93 in Calm   1.0 mph 97% 0.00 in OVC
06:10 35.6 °F 34.8 °F 29.94 in Calm   3.0 mph 97% 0.00 in OVC
06:20 35.7 °F 34.9 °F 29.94 in Calm   3.0 mph 97% 0.00 in OVC
06:30 35.7 °F 34.9 °F 29.94 in NNW 1.0 mph 3.0 mph 97% 0.00 in OVC
06:40 35.8 °F 35.0 °F 29.94 in Calm   3.0 mph 97% 0.00 in OVC
06:50 35.8 °F 35.0 °F 29.93 in Calm   2.0 mph 97% 0.00 in OVC
07:00 35.8 °F 35.0 °F 29.94 in Calm   1.0 mph 97% 0.00 in OVC
07:10 35.9 °F 35.1 °F 29.94 in Calm     97% 0.00 in -DZ
07:20 36.0 °F 35.2 °F 29.93 in Calm   2.0 mph 97% 0.00 in -DZ
07:30 36.1 °F 35.3 °F 29.94 in Calm   1.0 mph 97% 0.00 in -DZ
07:40 36.2 °F 35.4 °F 29.94 in Calm   1.0 mph 97% 0.00 in -DZ
07:50 36.3 °F 35.5 °F 29.95 in Calm   1.0 mph 97% 0.00 in -DZ
08:00 36.3 °F 35.5 °F 29.95 in Calm   1.0 mph 97% 0.00 in -DZ
08:10 36.4 °F 35.6 °F 29.95 in Calm   1.0 mph 97% 0.01 in -DZ
08:20 36.4 °F 35.6 °F 29.96 in Calm   1.0 mph 97% 0.00 in -DZ
08:30 36.4 °F 35.6 °F 29.96 in Calm   3.0 mph 97% 0.00 in -DZ
08:40 36.5 °F 35.7 °F 29.96 in NW 1.0 mph 3.0 mph 97% 0.00 in -DZ
08:50 36.5 °F 35.7 °F 29.95 in North 1.0 mph 3.0 mph 97% 0.00 in -DZ
09:00 36.5 °F 35.8 °F 29.96 in NNW 1.0 mph 3.0 mph 97% 0.00 in -DZ
09:10 36.6 °F 35.8 °F 29.96 in Calm   4.0 mph 97% 0.00 in -DZ
09:20 36.7 °F 35.9 °F 29.96 in North 1.0 mph 3.0 mph 97% 0.00 in -DZ
09:30 36.9 °F 36.1 °F 29.96 in Calm   3.0 mph 97% 0.00 in -DZ
09:40 37.0 °F 36.2 °F 29.97 in NW 1.0 mph 3.0 mph 97% 0.00 in -DZ
09:50 37.1 °F 36.4 °F 29.97 in Calm   1.0 mph 97% 0.00 in -DZ
10:00 37.0 °F 36.2 °F 29.96 in Calm   1.0 mph 97% 0.00 in -DZ
10:10 37.0 °F 36.2 °F 29.97 in Calm   2.0 mph 97% 0.00 in -DZ
10:20 36.9 °F 36.1 °F 29.96 in Calm   1.0 mph 97% 0.00 in -DZ
10:50 37.0 °F 36.2 °F 29.95 in NNW 1.0 mph 3.0 mph 97% 0.00 in -DZ
11:10 37.1 °F 36.3 °F 29.95 in NNW 1.0 mph 3.0 mph 97% 0.00 in OVC
11:20 37.2 °F 36.4 °F 29.95 in Calm   1.0 mph 97% 0.00 in OVC
11:30 37.1 °F 36.3 °F 29.94 in North 1.0 mph 3.0 mph 97% 0.00 in OVC
11:40 37.2 °F 36.4 °F 29.94 in Calm   1.0 mph 97% 0.00 in OVC
11:50 37.3 °F 36.6 °F 29.94 in NW 1.0 mph 2.0 mph 97% 0.00 in OVC
12:00 37.2 °F 36.4 °F 29.94 in NW 2.0 mph 4.0 mph 97% 0.00 in OVC
12:10 37.2 °F 36.4 °F 29.93 in Calm   4.0 mph 97% 0.00 in OVC
12:20 37.2 °F 36.4 °F 29.93 in Calm   3.0 mph 97% 0.00 in OVC
12:30 37.3 °F 36.5 °F 29.94 in NNW 1.0 mph 2.0 mph 97% 0.00 in OVC
12:40 37.3 °F 36.5 °F 29.94 in NW 1.0 mph 4.0 mph 97% 0.00 in OVC
12:50 37.4 °F 36.6 °F 29.94 in Calm   3.0 mph 97% 0.00 in OVC
13:00 37.7 °F 36.9 °F 29.94 in Calm   3.0 mph 97% 0.00 in OVC
13:10 37.7 °F 36.9 °F 29.95 in North 1.0 mph 5.0 mph 97% 0.00 in OVC
13:20 37.8 °F 37.0 °F 29.95 in NW 1.0 mph 4.0 mph 97% 0.00 in OVC
13:30 37.9 °F 37.1 °F 29.96 in NNW 1.0 mph 3.0 mph 97% 0.00 in OVC
13:40 37.9 °F 37.1 °F 29.97 in NW 1.0 mph 4.0 mph 97% 0.00 in OVC
13:50 37.9 °F 37.1 °F 29.97 in NNW 1.0 mph 4.0 mph 97% 0.00 in OVC
14:00 38.0 °F 37.2 °F 29.97 in Calm   3.0 mph 97% 0.00 in OVC
14:10 38.0 °F 37.2 °F 29.98 in Calm   2.0 mph 97% 0.00 in OVC
14:20 37.6 °F 36.6 °F 29.98 in WNW 2.0 mph 5.0 mph 96% 0.00 in OVC
14:30 37.5 °F 36.5 °F 29.98 in NW 1.0 mph 5.0 mph 96% 0.00 in OVC
14:40 37.4 °F 36.4 °F 29.98 in North 1.0 mph 4.0 mph 96% 0.00 in OVC
14:50 37.4 °F 36.4 °F 29.98 in North 1.0 mph 4.0 mph 96% 0.00 in OVC
15:00 37.5 °F 36.5 °F 29.98 in Calm   2.0 mph 96% 0.00 in OVC
15:10 37.6 °F 36.6 °F 29.98 in Calm   1.0 mph 96% 0.00 in OVC
15:20 37.6 °F 36.6 °F 29.98 in Calm   1.0 mph 96% 0.00 in OVC
15:30 37.8 °F 36.8 °F 29.98 in Calm   1.0 mph 96% 0.00 in OVC
15:40 38.0 °F 37.2 °F 29.97 in Calm   1.0 mph 97% 0.00 in OVC
15:50 38.1 °F 37.1 °F 29.98 in Calm   1.0 mph 96% 0.00 in OVC
16:00 38.0 °F 36.9 °F 29.99 in Calm   3.0 mph 96% 0.00 in OVC
16:10 37.7 °F 36.7 °F 30.00 in NNW 1.0 mph 4.0 mph 96% 0.00 in BKN
16:20 37.7 °F 36.7 °F 30.01 in Calm   3.0 mph 96% 0.00 in BKN
16:30 37.7 °F 36.7 °F 30.01 in Calm   3.0 mph 96% 0.00 in BKN
16:40 37.8 °F 36.8 °F 30.01 in Calm   3.0 mph 96% 0.00 in BKN
16:50 37.8 °F 36.8 °F 30.02 in Calm   2.0 mph 96% 0.00 in BKN
17:00 37.8 °F 36.8 °F 30.02 in Calm   4.0 mph 96% 0.00 in BKN
17:10 37.7 °F 36.7 °F 30.02 in Calm   4.0 mph 96% 0.00 in BKN
17:20 37.7 °F 36.7 °F 30.03 in Calm   1.0 mph 96% 0.00 in BKN
17:30 37.7 °F 36.6 °F 30.03 in Calm   2.0 mph 96% 0.00 in BKN
17:40 37.7 °F 36.7 °F 30.04 in Calm   1.0 mph 96% 0.00 in BKN
17:50 37.7 °F 36.7 °F 30.04 in Calm   2.0 mph 96% 0.00 in BKN
18:00 37.8 °F 36.8 °F 30.05 in Calm   1.0 mph 96% 0.00 in BKN
18:10 37.8 °F 36.8 °F 30.06 in WNW 1.0 mph 3.0 mph 96% 0.00 in BKN
18:20 37.8 °F 36.8 °F 30.06 in NNW 1.0 mph 5.0 mph 96% 0.00 in BKN
18:30 37.8 °F 36.5 °F 30.06 in Calm   5.0 mph 95% 0.00 in BKN
18:40 37.8 °F 36.5 °F 30.06 in North 1.0 mph 4.0 mph 95% 0.00 in BKN
18:50 37.8 °F 36.5 °F 30.06 in Calm   4.0 mph 95% 0.00 in BKN
19:00 37.7 °F 36.4 °F 30.07 in Calm   3.0 mph 95% 0.00 in BKN
19:10 37.7 °F 36.4 °F 30.07 in Calm   3.0 mph 95% 0.00 in OVC
19:20 37.7 °F 36.4 °F 30.06 in Calm   1.0 mph 95% 0.00 in OVC
19:30 37.7 °F 36.4 °F 30.06 in Calm   3.0 mph 95% 0.00 in OVC
19:40 37.6 °F 36.3 °F 30.06 in NW 1.0 mph 2.0 mph 95% 0.00 in OVC
19:50 37.6 °F 36.3 °F 30.06 in Calm   3.0 mph 95% 0.00 in OVC
20:00 37.5 °F 36.2 °F 30.05 in Calm   1.0 mph 95% 0.00 in OVC
20:20 37.0 °F 35.7 °F 30.05 in Calm     95% 0.00 in BKN
20:30 36.7 °F 35.4 °F 30.04 in Calm     95% 0.00 in BKN
20:40 36.6 °F 35.6 °F 30.05 in Calm   1.0 mph 96% 0.00 in BKN
20:50 36.8 °F 35.8 °F 30.05 in Calm   1.0 mph 96% 0.00 in BKN
21:00 37.0 °F 36.0 °F 30.05 in Calm   1.0 mph 96% 0.00 in BKN
21:10 36.9 °F 35.9 °F 30.05 in Calm     96% 0.00 in BKN
21:20 36.8 °F 35.8 °F 30.04 in Calm     96% 0.00 in BKN
21:30 36.7 °F 35.7 °F 30.04 in Calm   1.0 mph 96% 0.00 in BKN
21:40 36.7 °F 35.7 °F 30.05 in Calm   1.0 mph 96% 0.00 in BKN
21:50 36.7 °F 35.7 °F 30.05 in Calm   2.0 mph 96% 0.00 in BKN
22:00 36.8 °F 35.8 °F 30.05 in Calm   1.0 mph 96% 0.00 in BKN
22:10 36.9 °F 35.9 °F 30.05 in Calm   2.0 mph 96% 0.00 in BKN
22:20 36.9 °F 35.9 °F 30.05 in Calm   2.0 mph 96% 0.00 in BKN
22:30 36.8 °F 35.8 °F 30.05 in Calm   1.0 mph 96% 0.00 in BKN
22:40 36.7 °F 35.7 °F 30.05 in Calm   1.0 mph 96% 0.00 in BKN
22:50 36.5 °F 35.5 °F 30.05 in Calm   1.0 mph 96% 0.00 in BKN
23:00 36.4 °F 35.4 °F 30.04 in Calm   1.0 mph 96% 0.00 in BKN
23:10 36.3 °F 35.3 °F 30.04 in NNW 1.0 mph 3.0 mph 96% 0.00 in BKN
23:20 36.3 °F 35.3 °F 30.04 in Calm   1.0 mph 96% 0.00 in BKN
23:30 36.3 °F 35.3 °F 30.03 in Calm   1.0 mph 96% 0.00 in BKN
23:40 36.4 °F 35.3 °F 30.04 in Calm     96% 0.00 in BKN
23:50 36.4 °F 35.4 °F 30.03 in Calm     96% 0.00 in BKN
TarryTown NY Weather
Compliments of Weather Underground - 1.75 mb